ADDS METAR Data INFO
IDs: Format: Raw Decoded Include TAF

Data at: 0735 UTC 21 Jul 2018

PAJZ 210556Z AUTO 14009KT 7SM OVC042 18/12 A3030 RMK AO2 SLP268 T01830122 10211 20183 53002 $
PAJZ 210156Z AUTO 14011KT 7SM BKN046 OVC055 21/12 A3030 RMK AO2 SLP267 T02110122 $
PAJZ 210056Z AUTO 13011KT 7SM BKN042 BKN055 OVC090 21/13 A3030 RMK AO2 SLP267 T02110128 $
PAJZ 202356Z AUTO 16009KT 7SM FEW036 SCT045 BKN075 21/12 A3031 RMK AO2 SLP269 T02060122 10206 20128 56005 $
PAJZ 202056Z AUTO 10004KT 7SM OVC050 17/12 A3032 RMK AO2 SLP275 T01670117 55000 $
PAJZ 201956Z AUTO 09004KT 7SM FEW015 OVC050 15/11 A3032 RMK AO2 SLP274 T01500111 $
PAJZ 201856Z AUTO 10005KT 7SM OVC050 13/11 A3032 RMK AO2 SLP275 T01330106 $
PAJZ 201756Z AUTO 07009KT 6SM BR SCT007 OVC070 13/11 A3032 RMK AO2 SLP274 T01280106 10128 20061 58001 $
PAJZ 201752Z AUTO 06009KT 6SM BR BKN007 BKN070 13/11 A3032 RMK AO2 $
PAJZ 201720Z AUTO 05007KT 6SM BR OVC005 12/11 A3033 RMK AO2 $
PAJZ 201703Z AUTO 07006KT 6SM BR OVC003 11/11 A3033 RMK AO2 $
PAJZ 201656Z AUTO 05006KT 5SM BR OVC001 11/11 A3033 RMK AO2 SLP275 T01110106 $
PAJZ 201644Z AUTO 05006KT 3SM BR OVC001 10/10 A3032 RMK AO2 $
PAJZ 201626Z AUTO 06006KT 1 1/2SM BR OVC001 09/09 A3032 RMK AO2 $
PAJZ 201618Z AUTO 06005KT 1SM BR OVC001 09/09 A3033 RMK AO2 $
PAJZ 201612Z AUTO 09003KT 1/2SM FG OVC001 09/08 A3033 RMK AO2 $
PAJZ 201556Z AUTO 08003KT 1/4SM FG OVC001 08/08 A3033 RMK AO2 SLP276 T00830078 $
PAJZ 201456Z AUTO 06004KT 1/4SM FG OVC001 07/06 A3032 RMK AO2 SLP274 T00670061 51004 $
PAJZ 201256Z AUTO 10008KT 5SM BR CLR 07/07 A3032 RMK AO2 SLP272 T00720067 $
PAJZ 201156Z AUTO 11008KT 8SM CLR 08/07 A3031 RMK AO2 SLP270 T00830072 10183 20078 51007 $
PAJZ 200756Z AUTO 12009KT 7SM CLR 13/11 A3028 RMK AO2 SLP260 T01330106 402170061 $
PAJZ 200656Z AUTO 12008KT 7SM CLR 16/11 A3027 RMK AO2 SLP256 T01560111 $
PAJZ 200556Z AUTO 12007KT 7SM CLR 18/12 A3026 RMK AO2 SLP252 T01830117 10217 20183 53002 $
PAJZ 200456Z AUTO 11009KT 7SM CLR 20/11 A3025 RMK AO2 SLP251 T02000111 $
PAJZ 200356Z AUTO 11008KT 7SM FEW043 21/12 A3025 RMK AO2 SLP250 T02060117 $
PAJZ 200256Z AUTO 20003KT 7SM CLR 21/10 A3025 RMK AO2 SLP251 T02110100 56007 $
PAJZ 200156Z AUTO 11005KT 7SM CLR 21/11 A3026 RMK AO2 SLP254 T02110106 $
PAJZ 200056Z AUTO 17006KT 7SM CLR 21/11 A3027 RMK AO2 SLP256 T02060106 $
PAJZ 192111Z AUTO 14006KT 7SM SCT023 17/11 A3029 RMK AO2 $
PAJZ 192056Z AUTO VRB03KT 6SM HZ BKN023 17/10 A3029 RMK AO2 SLP265 T01670100 58002 $
PAJZ 191956Z AUTO 00000KT 6SM HZ OVC021 16/10 A3029 RMK AO2 SLP265 T01560100 $